GMTN/TTU METAR and TAF weather

Enter ICAO airport designator
Station Type Date Time Source
GMTN METAR 2022/08/16 19:00 UTC NOAA

GMTN 161900Z 27012KT 230V300 CAVOK 27/12 Q1010 NOSIG


Station Type Date Time Source
GMTN Decoded METAR 2022/08/16 19:00 UTC NOAA

Tetuan / Sania Ramel, Morocco (GMTN) 35-35N 005-20W 10M
Aug 16, 2022 - 03:00 PM EDT / 2022.08.16 1900 UTC
Wind: from the W (270 degrees) at 14 MPH (12 KT) (direction variable):0
Visibility: greater than 7 mile(s):0
Temperature: 80 F (27 C)
Dew Point: 53 F (12 C)
Relative Humidity: 39%
Pressure (altimeter): 29.83 in. Hg (1010 hPa)
ob: GMTN 161900Z 27012KT 230V300 CAVOK 27/12 Q1010 NOSIG
cycle: 19

Station Type Date Time Source
GMTN TAF 2021/07/02 12:21 UTC NOAA

TAF GMTN 021100Z 0212/0318 09008KT CAVOK
BECMG 0219/0223 26012KT

Example: see airport list